createdAt,value
2018-07-23T00:00:23.530Z,100248.80
2018-07-23T00:02:52.043Z,100242.85
2018-07-23T00:05:20.659Z,100245.04
2018-07-23T00:07:49.107Z,100240.91
2018-07-23T00:10:17.598Z,100240.74
2018-07-23T00:12:46.375Z,100239.97
2018-07-23T00:15:14.783Z,100229.92
2018-07-23T00:17:43.299Z,100234.65
2018-07-23T00:20:11.727Z,100235.98
2018-07-23T00:22:40.171Z,100233.18
2018-07-23T00:25:08.667Z,100231.45
2018-07-23T00:27:37.322Z,100231.94
2018-07-23T00:30:06.708Z,100233.66
2018-07-23T00:32:35.152Z,100231.30
2018-07-23T00:35:03.835Z,100231.30
2018-07-23T00:37:32.347Z,100231.39
2018-07-23T00:40:00.875Z,100233.25
2018-07-23T00:42:29.511Z,100227.55
2018-07-23T00:44:57.947Z,100227.97
2018-07-23T00:47:26.375Z,100229.98
2018-07-23T00:49:54.995Z,100233.51
2018-07-23T00:52:23.463Z,100232.18
2018-07-23T00:54:51.859Z,100230.66
2018-07-23T00:57:20.359Z,100227.38
2018-07-23T00:59:48.818Z,100229.39
2018-07-23T01:02:17.299Z,100222.20
2018-07-23T01:04:45.833Z,100224.41
2018-07-23T01:07:14.271Z,100234.52
2018-07-23T01:09:42.800Z,100228.38
2018-07-23T01:12:11.643Z,100234.88
2018-07-23T01:14:40.064Z,100229.78
2018-07-23T01:17:08.611Z,100230.56
2018-07-23T01:19:37.091Z,100229.39
2018-07-23T01:22:05.547Z,100230.05
2018-07-23T01:24:34.032Z,100229.94
2018-07-23T01:27:02.814Z,100232.05
2018-07-23T01:29:31.238Z,100231.98
2018-07-23T01:31:59.726Z,100233.78
2018-07-23T01:34:28.134Z,100237.05
2018-07-23T01:36:56.607Z,100235.33
2018-07-23T01:39:25.099Z,100241.66
2018-07-23T01:41:53.936Z,100235.15
2018-07-23T01:44:22.335Z,100240.12
2018-07-23T01:46:50.727Z,100245.10
2018-07-23T01:49:19.177Z,100238.95
2018-07-23T01:51:47.698Z,100242.84
2018-07-23T01:54:16.339Z,100247.62
2018-07-23T01:56:44.830Z,100249.47
2018-07-23T01:59:13.399Z,100239.47
2018-07-23T02:01:41.872Z,100243.23
2018-07-23T02:04:10.387Z,100242.95
2018-07-23T02:06:38.851Z,100244.53
2018-07-23T02:09:10.246Z,100242.95
2018-07-23T02:11:38.683Z,100242.19
2018-07-23T02:14:07.667Z,100242.86
2018-07-23T02:16:36.359Z,100247.22
2018-07-23T02:19:05.355Z,100238.27
2018-07-23T02:21:34.055Z,100247.34
2018-07-23T02:24:02.832Z,100248.68
2018-07-23T02:26:31.267Z,100250.81
2018-07-23T02:28:59.722Z,100249.77
2018-07-23T02:31:28.223Z,100261.83
2018-07-23T02:33:56.683Z,100257.95
2018-07-23T02:36:25.200Z,100257.48
2018-07-23T02:38:53.847Z,100260.50
2018-07-23T02:41:22.280Z,100266.41
2018-07-23T02:43:50.771Z,100269.78
2018-07-23T02:46:19.489Z,100259.52
2018-07-23T02:48:47.982Z,100257.11
2018-07-23T02:51:16.440Z,100264.14
2018-07-23T02:53:45.035Z,100269.90
2018-07-23T02:56:13.567Z,100269.88
2018-07-23T02:58:42.003Z,100268.33
2018-07-23T03:01:10.559Z,100267.67
2018-07-23T03:03:39.043Z,100268.00
2018-07-23T03:06:07.758Z,100267.39
2018-07-23T03:08:36.420Z,100261.77
2018-07-23T03:11:04.853Z,100264.06
2018-07-23T03:13:33.300Z,100269.52
2018-07-23T03:16:01.858Z,100267.87
2018-07-23T03:18:30.303Z,100264.88
2018-07-23T03:20:58.799Z,100267.39
2018-07-23T03:23:27.572Z,100271.42
2018-07-23T03:25:56.028Z,100267.27
2018-07-23T03:28:24.470Z,100271.20
2018-07-23T03:30:53.095Z,100277.27
2018-07-23T03:33:21.523Z,100277.55
2018-07-23T03:35:50.060Z,100276.95
2018-07-23T03:38:18.727Z,100280.38
2018-07-23T03:40:47.255Z,100284.78
2018-07-23T03:43:15.765Z,100286.38
2018-07-23T03:45:44.211Z,100284.56
2018-07-23T03:48:12.641Z,100295.05
2018-07-23T03:50:41.047Z,100289.67
2018-07-23T03:53:09.703Z,100285.73
2018-07-23T03:55:38.219Z,100290.78
2018-07-23T03:58:06.983Z,100289.84
2018-07-23T04:00:35.800Z,100292.38
2018-07-23T04:03:04.359Z,100294.19
2018-07-23T04:05:32.946Z,100301.91
2018-07-23T04:08:01.627Z,100297.42
2018-07-23T04:10:30.143Z,100302.67
2018-07-23T04:12:58.576Z,100303.15
2018-07-23T04:15:27.103Z,100306.64
2018-07-23T04:18:01.974Z,100304.90
2018-07-23T04:20:31.407Z,100307.91
2018-07-23T04:22:59.827Z,100313.59
2018-07-23T04:25:28.679Z,100313.83
2018-07-23T04:27:57.272Z,100316.40
2018-07-23T04:30:25.727Z,100317.53
2018-07-23T04:32:54.163Z,100323.46
2018-07-23T04:35:22.995Z,100323.22
2018-07-23T04:37:51.471Z,100322.33
2018-07-23T04:40:19.888Z,100326.34
2018-07-23T04:42:48.438Z,100325.01
2018-07-23T04:45:16.940Z,100327.39
2018-07-23T04:47:45.387Z,100326.76
2018-07-23T04:50:13.935Z,100331.98
2018-07-23T04:52:42.482Z,100336.09
2018-07-23T04:55:10.988Z,100343.75
2018-07-23T04:57:39.727Z,100334.67
2018-07-23T05:00:08.172Z,100342.53
2018-07-23T05:02:36.670Z,100341.72
2018-07-23T05:05:05.540Z,100343.17
2018-07-23T05:07:34.047Z,100341.84
2018-07-23T05:10:02.523Z,100342.89
2018-07-23T05:12:30.998Z,100346.02
2018-07-23T05:14:59.563Z,100342.09
2018-07-23T05:17:28.076Z,100345.06
2018-07-23T05:19:56.547Z,100346.85
2018-07-23T05:22:25.128Z,100345.50
2018-07-23T05:24:53.579Z,100345.39
2018-07-23T05:27:22.195Z,100347.56
2018-07-23T05:29:50.615Z,100348.26
2018-07-23T05:32:19.123Z,100348.30
2018-07-23T05:34:47.724Z,100346.95
2018-07-23T05:37:16.247Z,100348.52
2018-07-23T05:39:44.793Z,100351.63
2018-07-23T05:42:13.518Z,100362.27
2018-07-23T05:44:42.028Z,100357.06
2018-07-23T05:47:10.627Z,100364.80
2018-07-23T05:49:39.018Z,100364.05
2018-07-23T05:52:07.593Z,100363.67
2018-07-23T05:54:36.059Z,100364.27
2018-07-23T05:57:04.947Z,100363.11
2018-07-23T05:59:33.588Z,100366.34
2018-07-23T06:02:02.100Z,100365.34
2018-07-23T06:04:30.676Z,100369.95
2018-07-23T06:06:59.194Z,100366.63
2018-07-23T06:09:27.655Z,100366.02
2018-07-23T06:11:56.111Z,100374.73
2018-07-23T06:14:24.677Z,100377.00
2018-07-23T06:16:53.134Z,100376.52
2018-07-23T06:19:21.792Z,100375.10
2018-07-23T06:21:50.311Z,100376.93
2018-07-23T06:24:18.815Z,100381.20
2018-07-23T06:26:47.460Z,100385.20
2018-07-23T06:29:15.923Z,100382.91
2018-07-23T06:31:44.403Z,100383.88
2018-07-23T06:34:12.952Z,100388.75
2018-07-23T06:36:41.395Z,100391.98
2018-07-23T06:39:11.247Z,100395.38
2018-07-23T06:41:40.396Z,100392.17
2018-07-23T06:44:09.344Z,100394.78
2018-07-23T06:46:38.299Z,100394.66
2018-07-23T06:49:07.072Z,100396.15
2018-07-23T06:51:35.467Z,100391.83
2018-07-23T06:54:03.968Z,100391.36
2018-07-23T06:56:32.584Z,100394.06
2018-07-23T06:59:01.029Z,100393.13
2018-07-23T07:01:29.530Z,100394.84
2018-07-23T07:03:58.373Z,100390.94
2018-07-23T07:06:26.963Z,100397.89
2018-07-23T07:08:55.387Z,100394.80
2018-07-23T07:11:23.924Z,100393.72
2018-07-23T07:13:52.615Z,100396.09
2018-07-23T07:16:21.105Z,100396.84
2018-07-23T07:18:49.623Z,100398.28
2018-07-23T07:21:18.062Z,100398.16
2018-07-23T07:23:46.475Z,100393.04
2018-07-23T07:26:15.218Z,100393.90
2018-07-23T07:28:43.775Z,100389.81
2018-07-23T07:31:12.226Z,100389.75
2018-07-23T07:33:40.775Z,100389.39
2018-07-23T07:36:09.175Z,100384.19
2018-07-23T07:38:37.655Z,100386.83
2018-07-23T07:41:06.497Z,100390.64
2018-07-23T07:43:35.009Z,100379.51
2018-07-23T07:46:03.519Z,100389.81
2018-07-23T07:48:31.966Z,100384.12
2018-07-23T07:51:00.397Z,100386.48
2018-07-23T07:53:28.914Z,100378.67
2018-07-23T07:55:57.356Z,100380.20
2018-07-23T07:58:25.811Z,100376.02
2018-07-23T08:00:54.292Z,100380.75
2018-07-23T08:03:22.694Z,100381.73
2018-07-23T08:05:51.179Z,100377.20
2018-07-23T08:08:19.568Z,100371.75
2018-07-23T08:10:48.080Z,100374.69
2018-07-23T08:13:16.543Z,100377.94
2018-07-23T08:15:45.243Z,100380.08
2018-07-23T08:18:13.852Z,100379.20
2018-07-23T08:20:42.355Z,100379.28
2018-07-23T08:23:10.775Z,100378.38
2018-07-23T08:25:39.283Z,100375.48
2018-07-23T08:28:08.147Z,100374.44
2018-07-23T08:30:36.526Z,100378.55
2018-07-23T08:33:05.183Z,100387.69
2018-07-23T08:35:33.637Z,100378.78
2018-07-23T08:38:02.120Z,100384.39
2018-07-23T08:40:30.619Z,100379.74
2018-07-23T08:42:59.086Z,100379.28
2018-07-23T08:45:27.559Z,100384.49
2018-07-23T08:47:56.343Z,100382.06
2018-07-23T08:50:24.748Z,100381.56
2018-07-23T08:52:53.179Z,100372.29
2018-07-23T08:55:21.954Z,100373.41
2018-07-23T08:57:50.344Z,100370.76
2018-07-23T09:00:18.843Z,100370.61
2018-07-23T09:02:47.367Z,100374.12
2018-07-23T09:05:15.811Z,100378.16
2018-07-23T09:07:44.244Z,100373.94
2018-07-23T09:10:13.094Z,100378.83
2018-07-23T09:12:41.504Z,100369.86
2018-07-23T09:15:10.150Z,100373.80
2018-07-23T09:17:38.842Z,100373.38
2018-07-23T09:20:07.328Z,100375.11
2018-07-23T09:22:36.523Z,100375.94
2018-07-23T09:25:05.890Z,100370.52
2018-07-23T09:27:34.444Z,100367.03
2018-07-23T09:30:02.931Z,100371.17
2018-07-23T09:32:31.343Z,100370.45
2018-07-23T09:34:59.795Z,100356.27
2018-07-23T09:37:28.259Z,100360.90
2018-07-23T09:39:57.099Z,100361.17
2018-07-23T09:42:25.592Z,100358.73
2018-07-23T09:44:54.079Z,100359.30
2018-07-23T09:47:22.667Z,100354.23
2018-07-23T09:49:51.125Z,100351.55
2018-07-23T09:52:19.506Z,100353.31
2018-07-23T09:54:48.138Z,100351.77
2018-07-23T09:57:16.552Z,100351.28
2018-07-23T09:59:45.059Z,100347.12
2018-07-23T10:02:13.569Z,100353.13
2018-07-23T10:04:42.063Z,100341.68
2018-07-23T10:07:10.543Z,100349.80
2018-07-23T10:09:39.203Z,100346.97
2018-07-23T10:12:07.787Z,100346.88
2018-07-23T10:14:36.223Z,100338.23
2018-07-23T10:17:04.755Z,100331.76
2018-07-23T10:19:33.380Z,100332.03
2018-07-23T10:22:01.915Z,100327.39
2018-07-23T10:24:30.580Z,100330.55
2018-07-23T10:26:59.101Z,100330.05
2018-07-23T10:29:27.622Z,100334.17
2018-07-23T10:31:56.264Z,100334.31
2018-07-23T10:34:24.827Z,100334.96
2018-07-23T10:36:53.505Z,100334.45
2018-07-23T10:39:22.156Z,100330.57
2018-07-23T10:41:50.571Z,100334.27
2018-07-23T10:44:18.991Z,100332.05
2018-07-23T10:46:47.503Z,100325.86
2018-07-23T10:49:15.971Z,100322.31
2018-07-23T10:51:44.367Z,100320.05
2018-07-23T10:54:13.068Z,100325.81
2018-07-23T10:56:41.547Z,100318.91
2018-07-23T10:59:10.040Z,100320.88
2018-07-23T11:01:38.609Z,100324.10
2018-07-23T11:04:07.129Z,100318.34
2018-07-23T11:06:35.610Z,100316.55
2018-07-23T11:09:05.144Z,100315.64
2018-07-23T11:11:33.615Z,100319.14
2018-07-23T11:14:02.112Z,100320.48
2018-07-23T11:16:30.688Z,100318.12
2018-07-23T11:18:59.111Z,100324.13
2018-07-23T11:21:27.853Z,100317.91
2018-07-23T11:23:56.294Z,100316.20
2018-07-23T11:26:24.831Z,100318.05
2018-07-23T11:28:53.674Z,100305.72
2018-07-23T11:31:22.285Z,100314.75
2018-07-23T11:33:50.779Z,100310.80
2018-07-23T11:36:19.195Z,100309.31
2018-07-23T11:38:47.727Z,100302.06
2018-07-23T11:41:16.163Z,100303.97
2018-07-23T11:43:44.667Z,100304.15
2018-07-23T11:46:24.417Z,100308.41
2018-07-23T11:48:41.555Z,100302.19
2018-07-23T11:51:10.035Z,100301.84
2018-07-23T11:53:38.638Z,100303.78
2018-07-23T11:56:07.108Z,100301.39
2018-07-23T11:58:35.671Z,100306.18
2018-07-23T12:01:04.179Z,100304.45
2018-07-23T12:03:32.617Z,100297.07
2018-07-23T12:06:01.019Z,100295.88
2018-07-23T12:08:29.679Z,100302.25
2018-07-23T12:10:58.107Z,100297.38
2018-07-23T12:13:26.595Z,100296.24
2018-07-23T12:15:55.112Z,100290.44
2018-07-23T12:18:23.577Z,100287.69
2018-07-23T12:20:52.011Z,100290.25
2018-07-23T12:23:20.494Z,100289.05
2018-07-23T12:25:48.983Z,100292.11
2018-07-23T12:28:17.803Z,100275.91
2018-07-23T12:30:46.222Z,100280.02
2018-07-23T12:33:14.647Z,100283.02
2018-07-23T12:35:43.152Z,100285.27
2018-07-23T12:38:11.810Z,100278.17
2018-07-23T12:40:40.241Z,100277.06
2018-07-23T12:43:08.753Z,100269.23
2018-07-23T12:45:37.394Z,100275.09
2018-07-23T12:48:06.073Z,100276.67
2018-07-23T12:50:34.665Z,100269.52
2018-07-23T12:53:03.166Z,100262.83
2018-07-23T12:55:31.594Z,100264.00
2018-07-23T12:58:00.107Z,100266.34
2018-07-23T13:00:28.723Z,100262.38
2018-07-23T13:02:57.209Z,100265.64
2018-07-23T13:05:26.574Z,100258.31
2018-07-23T13:07:55.808Z,100263.32
2018-07-23T13:10:24.336Z,100262.58
2018-07-23T13:12:52.719Z,100256.63
2018-07-23T13:15:21.294Z,100261.70
2018-07-23T13:17:49.945Z,100262.12
2018-07-23T13:20:18.379Z,100257.45
2018-07-23T13:22:47.152Z,100257.14
2018-07-23T13:25:15.907Z,100257.94
2018-07-23T13:27:44.292Z,100257.03
2018-07-23T13:30:12.744Z,100256.06
2018-07-23T13:32:41.424Z,100256.18
2018-07-23T13:35:09.959Z,100253.58
2018-07-23T13:37:38.411Z,100250.26
2018-07-23T13:40:06.895Z,100238.62
2018-07-23T13:42:35.280Z,100243.99
2018-07-23T13:45:04.035Z,100241.67
2018-07-23T13:47:32.432Z,100243.38
2018-07-23T13:50:01.152Z,100233.97
2018-07-23T13:52:29.695Z,100234.84
2018-07-23T13:54:58.295Z,100229.81
2018-07-23T13:57:26.967Z,100232.70
2018-07-23T13:59:55.424Z,100232.19
2018-07-23T14:02:23.915Z,100232.25
2018-07-23T14:04:52.419Z,100228.00
2018-07-23T14:07:20.824Z,100232.08
2018-07-23T14:09:49.218Z,100220.67
2018-07-23T14:12:17.723Z,100222.92
2018-07-23T14:14:46.351Z,100218.05
2018-07-23T14:17:14.881Z,100219.62
2018-07-23T14:19:43.367Z,100219.02
2018-07-23T14:22:11.935Z,100209.48
2018-07-23T14:24:40.427Z,100205.07
2018-07-23T14:27:08.863Z,100210.66
2018-07-23T14:29:37.363Z,100210.58
2018-07-23T14:32:05.794Z,100208.78
2018-07-23T14:34:34.191Z,100205.73
2018-07-23T14:37:02.649Z,100205.39
2018-07-23T14:39:31.071Z,100201.73
2018-07-23T14:41:59.656Z,100203.00
2018-07-23T14:44:28.091Z,100200.39
2018-07-23T14:46:56.602Z,100200.70
2018-07-23T14:49:24.984Z,100199.87
2018-07-23T14:51:53.659Z,100199.33
2018-07-23T14:54:22.143Z,100202.59
2018-07-23T14:56:50.567Z,100194.92
2018-07-23T14:59:19.056Z,100201.72
2018-07-23T15:01:47.599Z,100194.88
2018-07-23T15:04:16.004Z,100193.00
2018-07-23T15:06:44.623Z,100192.87
2018-07-23T15:09:13.064Z,100189.20
2018-07-23T15:11:41.599Z,100194.05
2018-07-23T15:14:10.007Z,100189.64
2018-07-23T15:16:38.463Z,100184.49
2018-07-23T15:19:06.919Z,100188.36
2018-07-23T15:21:35.454Z,100183.56
2018-07-23T15:24:03.915Z,100186.23
2018-07-23T15:26:32.374Z,100195.97
2018-07-23T15:29:01.067Z,100180.10
2018-07-23T15:31:29.530Z,100187.35
2018-07-23T15:33:58.008Z,100185.86
2018-07-23T15:36:26.511Z,100183.00
2018-07-23T15:38:54.904Z,100187.39
2018-07-23T15:41:23.387Z,100186.45
2018-07-23T15:43:51.942Z,100184.02
2018-07-23T15:46:20.427Z,100185.44
2018-07-23T15:48:48.823Z,100186.34
2018-07-23T15:51:17.423Z,100187.20
2018-07-23T15:53:45.840Z,100182.72
2018-07-23T15:56:14.531Z,100189.31
2018-07-23T15:58:42.983Z,100194.59
2018-07-23T16:01:11.464Z,100186.69
2018-07-23T16:03:39.879Z,100184.23
2018-07-23T16:06:08.328Z,100181.96
2018-07-23T16:08:36.745Z,100178.70
2018-07-23T16:11:05.215Z,100189.34
2018-07-23T16:13:33.668Z,100175.20
2018-07-23T16:16:02.096Z,100180.70
2018-07-23T16:18:30.579Z,100183.96
2018-07-23T16:20:59.232Z,100181.86
2018-07-23T16:23:27.695Z,100179.84
2018-07-23T16:25:56.147Z,100178.98
2018-07-23T16:28:24.787Z,100179.99
2018-07-23T16:30:53.335Z,100179.84
2018-07-23T16:33:21.735Z,100181.22
2018-07-23T16:35:50.608Z,100178.15
2018-07-23T16:38:19.050Z,100179.70
2018-07-23T16:40:47.521Z,100179.00
2018-07-23T16:43:16.043Z,100175.05
2018-07-23T16:45:44.503Z,100183.61
2018-07-23T16:48:13.048Z,100176.77
2018-07-23T16:50:41.491Z,100172.28
2018-07-23T16:53:09.925Z,100176.92
2018-07-23T16:55:38.513Z,100178.45
2018-07-23T16:58:07.359Z,100181.12
2018-07-23T17:00:35.808Z,100181.17
2018-07-23T17:03:04.229Z,100183.74
2018-07-23T17:05:32.652Z,100180.60
2018-07-23T17:08:01.072Z,100174.33
2018-07-23T17:10:29.463Z,100172.44
2018-07-23T17:12:57.994Z,100176.03
2018-07-23T17:15:26.395Z,100183.95
2018-07-23T17:17:54.919Z,100177.75
2018-07-23T17:20:23.683Z,100180.53
2018-07-23T17:22:52.223Z,100181.22
2018-07-23T17:25:20.716Z,100180.86
2018-07-23T17:27:49.287Z,100182.25
2018-07-23T17:30:17.826Z,100177.61
2018-07-23T17:32:46.500Z,100174.34
2018-07-23T17:35:15.091Z,100173.66
2018-07-23T17:37:43.707Z,100173.50
2018-07-23T17:40:12.183Z,100171.19
2018-07-23T17:42:40.639Z,100173.64
2018-07-23T17:45:09.314Z,100175.64
2018-07-23T17:47:37.668Z,100172.18
2018-07-23T17:50:06.295Z,100171.63
2018-07-23T17:52:34.719Z,100174.02
2018-07-23T17:55:03.292Z,100179.71
2018-07-23T17:57:31.801Z,100175.70
2018-07-23T18:00:00.206Z,100169.53
2018-07-23T18:02:28.647Z,100182.31
2018-07-23T18:04:57.059Z,100174.34
2018-07-23T18:07:25.531Z,100173.82
2018-07-23T18:09:54.001Z,100177.75
2018-07-23T18:12:22.792Z,100176.56
2018-07-23T18:14:51.220Z,100170.95
2018-07-23T18:17:19.706Z,100178.34
2018-07-23T18:19:48.219Z,100177.34
2018-07-23T18:22:16.646Z,100173.45
2018-07-23T18:24:45.099Z,100180.05
2018-07-23T18:27:13.517Z,100175.09
2018-07-23T18:29:41.911Z,100179.28
2018-07-23T18:32:10.362Z,100187.93
2018-07-23T18:34:39.042Z,100178.64
2018-07-23T18:37:07.483Z,100180.36
2018-07-23T18:39:35.955Z,100182.02
2018-07-23T18:42:04.459Z,100182.45
2018-07-23T18:44:32.928Z,100181.03
2018-07-23T18:47:01.572Z,100183.66
2018-07-23T18:49:43.518Z,100182.80
2018-07-23T18:52:12.700Z,100185.83
2018-07-23T18:54:41.990Z,100185.70
2018-07-23T18:57:10.735Z,100189.21
2018-07-23T18:59:39.328Z,100186.98
2018-07-23T19:02:09.764Z,100189.41
2018-07-23T19:04:38.390Z,100190.05
2018-07-23T19:07:07.727Z,100190.91
2018-07-23T19:09:36.439Z,100194.84
2018-07-23T19:12:04.951Z,100194.19
2018-07-23T19:14:33.420Z,100192.78
2018-07-23T19:17:03.103Z,100197.23
2018-07-23T19:19:31.520Z,100202.87
2018-07-23T19:22:00.008Z,100196.52
2018-07-23T19:24:28.599Z,100208.39
2018-07-23T19:26:57.054Z,100203.14
2018-07-23T19:29:25.651Z,100213.14
2018-07-23T19:31:54.488Z,100210.34
2018-07-23T19:34:23.031Z,100214.59
2018-07-23T19:36:51.588Z,100216.24
2018-07-23T19:39:20.952Z,100219.55
2018-07-23T19:41:49.462Z,100223.77
2018-07-23T19:44:18.061Z,100221.95
2018-07-23T19:46:46.554Z,100217.98
2018-07-23T19:49:14.992Z,100224.72
2018-07-23T19:51:43.570Z,100229.09
2018-07-23T19:54:12.671Z,100229.69
2018-07-23T19:56:41.176Z,100235.45
2018-07-23T19:59:09.683Z,100230.45
2018-07-23T20:01:38.219Z,100236.09
2018-07-23T20:04:07.912Z,100239.95
2018-07-23T20:06:36.319Z,100236.32
2018-07-23T20:09:08.131Z,100233.11
2018-07-23T20:11:36.772Z,100229.67
2018-07-23T20:14:05.281Z,100228.80
2018-07-23T20:16:34.125Z,100233.55
2018-07-23T20:19:02.666Z,100227.39
2018-07-23T20:21:31.107Z,100239.73
2018-07-23T20:23:59.584Z,100229.02
2018-07-23T20:26:28.004Z,100232.29
2018-07-23T20:28:56.396Z,100232.36
2018-07-23T20:31:25.307Z,100227.56
2018-07-23T20:33:53.732Z,100231.46
2018-07-23T20:36:22.235Z,100233.45
2018-07-23T20:38:51.090Z,100234.83
2018-07-23T20:41:19.531Z,100234.72
2018-07-23T20:43:47.983Z,100230.09
2018-07-23T20:46:16.772Z,100234.88
2018-07-23T20:48:45.365Z,100235.89
2018-07-23T20:51:13.815Z,100239.45
2018-07-23T20:53:42.759Z,100239.58
2018-07-23T20:56:11.221Z,100239.92
2018-07-23T20:58:39.620Z,100238.07
2018-07-23T21:01:08.363Z,100243.13
2018-07-23T21:03:36.871Z,100237.85
2018-07-23T21:06:05.613Z,100236.63
2018-07-23T21:08:34.104Z,100236.46
2018-07-23T21:11:02.559Z,100236.98
2018-07-23T21:13:31.059Z,100236.98
2018-07-23T21:15:59.931Z,100244.02
2018-07-23T21:18:28.356Z,100247.37
2018-07-23T21:20:56.866Z,100251.53
2018-07-23T21:23:25.527Z,100251.28
2018-07-23T21:25:54.023Z,100253.86
2018-07-23T21:28:22.516Z,100254.97
2018-07-23T21:30:51.071Z,100255.46
2018-07-23T21:33:19.488Z,100253.36
2018-07-23T21:35:47.919Z,100259.09
2018-07-23T21:38:16.708Z,100258.29
2018-07-23T21:40:45.223Z,100265.59
2018-07-23T21:43:13.687Z,100261.28
2018-07-23T21:45:42.147Z,100265.88
2018-07-23T21:48:10.583Z,100262.98
2018-07-23T21:50:39.097Z,100261.28
2018-07-23T21:53:07.887Z,100253.58
2018-07-23T21:55:36.316Z,100260.96
2018-07-23T21:58:04.775Z,100251.00
2018-07-23T22:00:36.357Z,100246.69
2018-07-23T22:03:04.951Z,100250.46
2018-07-23T22:05:33.449Z,100256.27
2018-07-23T22:08:02.293Z,100254.85
2018-07-23T22:10:30.820Z,100258.32
2018-07-23T22:12:59.348Z,100250.13
2018-07-23T22:15:27.856Z,100256.03
2018-07-23T22:17:56.233Z,100256.30
2018-07-23T22:20:24.687Z,100251.49
2018-07-23T22:22:53.410Z,100251.72
2018-07-23T22:25:21.870Z,100252.28
2018-07-23T22:27:50.286Z,100258.27
2018-07-23T22:30:19.084Z,100259.62
2018-07-23T22:32:47.463Z,100258.16
2018-07-23T22:35:15.973Z,100260.02
2018-07-23T22:37:44.507Z,100260.09
2018-07-23T22:40:12.971Z,100261.34
2018-07-23T22:42:42.683Z,100259.82
2018-07-23T22:45:11.507Z,100255.02
2018-07-23T22:47:39.935Z,100259.16
2018-07-23T22:50:08.383Z,100259.38
2018-07-23T22:52:36.883Z,100258.17
2018-07-23T22:55:05.307Z,100258.70
2018-07-23T22:57:33.783Z,100256.57
2018-07-23T23:00:02.344Z,100253.92
2018-07-23T23:02:30.879Z,100258.69
2018-07-23T23:04:59.277Z,100254.75
2018-07-23T23:07:27.849Z,100250.33
2018-07-23T23:09:56.291Z,100251.97
2018-07-23T23:12:24.748Z,100250.44
2018-07-23T23:14:53.378Z,100249.65
2018-07-23T23:17:21.928Z,100246.61
2018-07-23T23:19:50.379Z,100245.45
2018-07-23T23:22:18.864Z,100246.17
2018-07-23T23:24:47.387Z,100245.73
2018-07-23T23:27:15.887Z,100243.75
2018-07-23T23:29:44.667Z,100241.24
2018-07-23T23:32:13.091Z,100241.08
2018-07-23T23:34:42.397Z,100245.69
2018-07-23T23:37:10.911Z,100244.28
2018-07-23T23:39:39.363Z,100243.98
2018-07-23T23:42:07.802Z,100245.74
2018-07-23T23:44:36.740Z,100244.23
2018-07-23T23:47:05.152Z,100247.03
2018-07-23T23:49:33.672Z,100246.86
2018-07-23T23:52:02.319Z,100245.23
2018-07-23T23:54:30.731Z,100243.94
2018-07-23T23:56:59.136Z,100245.39
2018-07-23T23:59:27.555Z,100241.75
